Time;durP1;ratioP1;P1;durP2;ratioP2;P2;SDS_P1;SDS_P2;PMS_P1;PMS_P2;Temp;Humidity;BMP_temperature;BMP_pressure;BME280_temperature;BME280_humidity;BME280_pressure;Samples;Min_cycle;Max_cycle;Signal;HPM_P1;HPM_P2
2021/03/22 00:01:40;;;;;;;23.00;6.80;;;;;;;4.81;62.10;100376.38;5011817;28;20044;-73
2021/03/22 00:04:05;;;;;;;25.63;5.90;;;;;;;4.85;61.59;100372.84;5011307;28;20041;-73
2021/03/22 00:06:31;;;;;;;43.35;8.10;;;;;;;4.88;61.95;100370.16;5009611;28;20046;-71
2021/03/22 00:08:57;;;;;;;23.33;5.57;;;;;;;4.86;61.67;100377.16;5009632;28;20398;-72
2021/03/22 00:11:23;;;;;;;28.33;8.23;;;;;;;4.84;61.91;100373.69;5011234;28;20026;-72
2021/03/22 00:13:48;;;;;;;29.23;6.85;;;;;;;4.82;62.08;100370.25;5011080;28;20107;-72
2021/03/22 00:16:14;;;;;;;26.67;7.82;;;;;;;4.78;62.27;100371.19;5010261;28;20397;-72
2021/03/22 00:18:40;;;;;;;17.73;6.63;;;;;;;4.76;62.04;100375.59;5010777;28;20026;-72
2021/03/22 00:21:07;;;;;;;21.48;5.55;;;;;;;4.80;62.17;100372.03;5010691;28;20050;-71
2021/03/22 00:23:33;;;;;;;23.42;8.52;;;;;;;4.70;62.50;100367.81;5011076;28;20408;-72
2021/03/22 00:25:59;;;;;;;28.25;7.13;;;;;;;4.76;62.26;100364.28;5011341;28;20030;-72
2021/03/22 00:28:25;;;;;;;29.70;8.02;;;;;;;4.79;61.92;100367.69;5011047;28;20053;-72
2021/03/22 00:30:50;;;;;;;28.45;6.90;;;;;;;4.71;62.35;100367.81;5011307;28;20022;-72
2021/03/22 00:33:17;;;;;;;44.40;7.13;;;;;;;4.67;62.35;100365.28;5011310;28;20038;-71
2021/03/22 00:35:43;;;;;;;30.10;6.20;;;;;;;4.70;62.43;100366.09;5011142;28;20489;-74
2021/03/22 00:38:10;;;;;;;16.65;5.90;;;;;;;4.76;62.42;100359.06;5009514;28;20044;-72
2021/03/22 00:40:40;;;;;;;22.77;5.03;;;;;;;4.76;62.13;100366.91;5010679;28;20120;-72
2021/03/22 00:43:06;;;;;;;18.95;5.30;;;;;;;4.72;62.39;100368.66;5010561;28;20194;-72
2021/03/22 00:45:31;;;;;;;30.73;6.47;;;;;;;4.73;62.50;100355.59;5010962;28;20058;-72
2021/03/22 00:47:56;;;;;;;17.95;6.20;;;;;;;4.73;62.95;100358.22;5010592;28;20037;-71
2021/03/22 00:50:32;;;;;;;23.63;6.53;;;;;;;4.67;63.11;100367.88;5009979;28;20026;-72
2021/03/22 00:52:58;;;;;;;31.00;8.68;;;;;;;4.58;63.78;100357.56;5010438;28;20525;-72
2021/03/22 00:55:24;;;;;;;27.92;6.35;;;;;;;4.60;63.43;100366.25;5010190;28;20151;-72
2021/03/22 00:57:50;;;;;;;24.13;5.88;;;;;;;4.61;63.47;100365.38;5010108;28;20499;-72
2021/03/22 01:00:21;;;;;;;20.20;4.90;;;;;;;4.66;63.70;100360.94;5009812;28;20436;-72
2021/03/22 01:02:46;;;;;;;24.55;6.07;;;;;;;4.71;63.07;100359.13;5010269;28;20049;-72
2021/03/22 01:05:12;;;;;;;17.73;5.38;;;;;;;4.72;63.47;100359.09;5009829;28;20123;-72
2021/03/22 01:07:38;;;;;;;25.95;4.78;;;;;;;4.71;63.01;100359.97;5010204;28;20069;-72
2021/03/22 01:10:08;;;;;;;24.23;5.50;;;;;;;4.70;63.02;100353.06;5010201;28;20556;-73
2021/03/22 01:12:33;;;;;;;20.27;5.65;;;;;;;4.61;63.53;100361.03;5010832;28;20034;-73
2021/03/22 01:14:59;;;;;;;22.85;4.90;;;;;;;4.67;63.39;100353.06;5010841;28;20037;-72
2021/03/22 01:17:24;;;;;;;17.05;5.47;;;;;;;4.67;63.52;100353.06;5010244;28;20117;-74
2021/03/22 01:19:49;;;;;;;20.77;7.30;;;;;;;4.66;63.92;100356.59;5010509;28;20041;-72
2021/03/22 01:22:15;;;;;;;24.92;6.78;;;;;;;4.67;63.85;100352.22;5011148;28;20118;-72
2021/03/22 01:24:40;;;;;;;29.20;8.40;;;;;;;4.67;64.21;100347.00;5012897;28;20022;-72
2021/03/22 01:27:08;;;;;;;42.35;8.00;;;;;;;4.64;64.05;100341.81;5013851;28;20158;-72
2021/03/22 01:29:37;;;;;;;25.60;7.40;;;;;;;4.61;64.44;100336.66;5011455;28;20065;-72
2021/03/22 01:32:08;;;;;;;21.05;6.15;;;;;;;4.60;64.68;100338.38;5011687;28;20033;-72
2021/03/22 01:34:34;;;;;;;19.98;5.68;;;;;;;4.57;64.96;100338.44;5010628;28;20377;-72
2021/03/22 01:36:59;;;;;;;13.23;5.47;;;;;;;4.57;65.12;100341.06;5010341;28;20038;-72
2021/03/22 01:39:28;;;;;;;25.60;7.28;;;;;;;4.54;65.34;100335.03;5009953;28;20118;-72
2021/03/22 01:41:56;;;;;;;20.10;6.05;;;;;;;4.48;65.80;100325.56;5010042;28;20481;-71
2021/03/22 01:44:25;;;;;;;28.60;6.38;;;;;;;4.44;65.94;100323.88;5009464;28;20037;-71
2021/03/22 01:47:09;;;;;;;14.82;5.72;;;;;;;4.51;65.66;100326.34;5007856;28;20030;-72
2021/03/22 01:49:51;;;;;;;27.52;6.80;;;;;;;4.51;65.79;100326.34;5009364;28;20031;-72
2021/03/22 01:52:17;;;;;;;24.35;6.50;;;;;;;4.51;65.63;100323.75;4990013;28;20038;-73
2021/03/22 01:54:44;;;;;;;19.30;7.72;;;;;;;4.52;65.73;100325.44;4990605;28;20039;-72
2021/03/22 01:57:30;;;;;;;18.17;6.20;;;;;;;4.56;65.65;100325.44;4989697;28;20117;-72
2021/03/22 02:00:14;;;;;;;18.88;6.47;;;;;;;4.56;65.25;100326.28;4989669;28;20100;-72
2021/03/22 02:02:41;;;;;;;13.70;5.22;;;;;;;4.58;65.63;100323.63;4977158;28;20050;-71
2021/03/22 02:05:09;;;;;;;22.45;5.03;;;;;;;4.57;65.79;100325.38;4989884;28;20042;-71
2021/03/22 02:07:35;;;;;;;27.83;5.30;;;;;;;4.52;65.82;100320.22;4990284;28;20042;-71
2021/03/22 02:10:01;;;;;;;22.67;6.63;;;;;;;4.46;65.77;100317.72;4991902;28;20034;-71
2021/03/22 02:12:29;;;;;;;21.83;6.75;;;;;;;4.42;66.13;100317.81;4993779;28;20516;-71
2021/03/22 02:14:54;;;;;;;13.95;4.60;;;;;;;4.41;66.30;100316.09;4993960;28;20031;-72
2021/03/22 02:17:38;;;;;;;29.15;6.80;;;;;;;4.47;66.37;100321.19;4996895;28;20038;-72
2021/03/22 02:20:41;;;;;;;21.90;6.45;;;;;;;4.44;66.72;100318.66;4991717;28;20034;-71
2021/03/22 02:23:28;;;;;;;20.92;6.13;;;;;;;4.42;66.32;100320.41;4993699;28;20053;-71
2021/03/22 02:26:02;;;;;;;22.55;5.38;;;;;;;4.43;66.75;100317.78;4993854;28;20042;-71
2021/03/22 02:28:33;;;;;;;17.98;5.40;;;;;;;4.45;66.38;100320.34;4993546;28;20050;-72
2021/03/22 02:31:01;;;;;;;19.77;6.00;;;;;;;4.46;66.92;100316.88;4993225;28;20027;-72
2021/03/22 02:33:53;;;;;;;21.63;6.15;;;;;;;4.51;66.66;100318.53;4993329;28;20046;-72
2021/03/22 02:36:45;;;;;;;26.58;6.60;;;;;;;4.53;66.82;100313.28;4993293;28;20034;-72
2021/03/22 02:39:11;;;;;;;22.25;5.45;;;;;;;4.53;66.98;100315.91;4992451;28;20034;-72
2021/03/22 02:41:45;;;;;;;25.02;5.90;;;;;;;4.56;67.17;100312.38;4992826;28;20042;-72
2021/03/22 02:44:10;;;;;;;28.05;7.28;;;;;;;4.46;67.72;100307.28;4992894;28;20038;-72
2021/03/22 02:46:37;;;;;;;26.52;6.70;;;;;;;4.46;67.98;100309.91;4992856;28;20042;-72
2021/03/22 02:49:06;;;;;;;29.52;8.85;;;;;;;4.48;68.31;100300.31;4992636;28;20113;-72
2021/03/22 02:51:52;;;;;;;20.60;5.88;;;;;;;4.48;68.55;100292.47;4992869;28;20060;-72
2021/03/22 02:54:35;;;;;;;23.10;7.07;;;;;;;4.51;68.42;100288.94;4992830;28;20032;-71
2021/03/22 02:57:12;;;;;;;18.13;6.13;;;;;;;4.49;68.14;100290.72;4992698;28;20264;-71
2021/03/22 02:59:47;;;;;;;26.52;7.65;;;;;;;4.44;68.88;100292.53;4992566;28;20030;-73
2021/03/22 03:02:15;;;;;;;30.15;6.47;;;;;;;4.47;68.62;100300.31;4992878;28;20515;-73
2021/03/22 03:04:43;;;;;;;20.25;6.18;;;;;;;4.47;68.57;100298.56;4992990;28;20490;-73
2021/03/22 03:07:11;;;;;;;28.98;6.97;;;;;;;4.44;69.27;100301.22;4992742;28;20049;-73
2021/03/22 03:09:40;;;;;;;23.40;6.75;;;;;;;4.41;69.07;100298.69;4993166;28;20038;-73
2021/03/22 03:12:22;;;;;;;28.25;6.32;;;;;;;4.35;69.42;100306.59;4993489;28;20034;-71
2021/03/22 03:14:51;;;;;;;22.88;5.65;;;;;;;4.36;69.28;100307.47;4994019;28;20108;-72
2021/03/22 03:17:17;;;;;;;25.55;8.27;;;;;;;4.42;69.49;100313.44;4994635;28;20035;-74
2021/03/22 03:19:42;;;;;;;24.85;6.30;;;;;;;4.45;69.43;100307.31;4994968;28;23973;-72
2021/03/22 03:22:08;;;;;;;32.55;7.85;;;;;;;4.49;69.14;100315.06;4993752;28;20050;-72
2021/03/22 03:24:35;;;;;;;30.30;7.35;;;;;;;4.45;69.60;100310.78;4993531;28;20030;-72
2021/03/22 03:27:01;;;;;;;25.45;7.10;;;;;;;4.48;69.97;100310.75;4993020;28;20038;-72
2021/03/22 03:29:26;;;;;;;25.80;6.28;;;;;;;4.47;69.64;100314.22;4990932;28;20097;-71
2021/03/22 03:31:52;;;;;;;23.90;6.00;;;;;;;4.46;69.73;100311.66;4993152;28;20121;-72
2021/03/22 03:34:17;;;;;;;28.88;7.07;;;;;;;4.39;69.97;100321.31;4990869;28;20058;-73
2021/03/22 03:36:42;;;;;;;25.10;7.20;;;;;;;4.39;70.28;100325.69;4990852;28;20215;-71
2021/03/22 03:39:08;;;;;;;27.27;6.47;;;;;;;4.41;70.63;100322.16;4991112;28;20045;-72
2021/03/22 03:41:35;;;;;;;21.70;5.75;;;;;;;4.36;70.41;100324.00;4991812;28;20089;-72
2021/03/22 03:44:01;;;;;;;26.67;6.45;;;;;;;4.33;70.39;100324.00;5010524;23;20042;-76
2021/03/22 03:46:27;;;;;;;23.45;7.18;;;;;;;4.32;70.81;100324.06;4994928;28;20053;-76
2021/03/22 03:48:52;;;;;;;33.00;7.57;;;;;;;4.29;70.99;100319.75;4994652;28;20392;-76
2021/03/22 03:51:18;;;;;;;36.70;8.15;;;;;;;4.25;71.36;100328.50;4993174;28;20033;-76
2021/03/22 03:53:43;;;;;;;16.50;6.43;;;;;;;4.27;71.50;100326.72;4992994;28;20042;-73
2021/03/22 03:56:09;;;;;;;25.83;7.10;;;;;;;4.32;71.18;100324.06;4992121;28;20034;-75
2021/03/22 03:58:34;;;;;;;23.05;6.82;;;;;;;4.33;71.75;100328.38;4991833;28;20042;-77
2021/03/22 04:00:59;;;;;;;24.90;7.70;;;;;;;4.32;72.18;100329.28;4991864;28;20042;-75
2021/03/22 04:03:31;;;;;;;39.75;9.10;;;;;;;4.20;72.66;100331.16;4990377;28;20468;-73
2021/03/22 04:06:05;;;;;;;22.33;7.03;;;;;;;4.21;72.86;100326.81;4991174;28;20496;-74
2021/03/22 04:08:33;;;;;;;30.10;8.35;;;;;;;4.15;73.37;100319.94;4992070;28;20077;-74
2021/03/22 04:11:00;;;;;;;28.70;7.60;;;;;;;4.15;73.44;100322.53;4993157;28;20045;-75
2021/03/22 04:13:26;;;;;;;28.58;8.05;;;;;;;4.18;73.13;100334.69;4992922;28;20393;-75
2021/03/22 04:15:53;;;;;;;24.80;8.75;;;;;;;4.21;73.42;100339.84;4992318;28;20124;-74
2021/03/22 04:18:18;;;;;;;28.02;8.68;;;;;;;4.23;73.38;100336.38;4992299;28;20519;-75
2021/03/22 04:20:44;;;;;;;36.35;7.80;;;;;;;4.26;73.63;100338.06;4992361;28;20042;-75
2021/03/22 04:23:09;;;;;;;25.95;8.50;;;;;;;4.19;73.70;100336.44;4992227;28;20092;-74
2021/03/22 04:25:35;;;;;;;33.65;9.60;;;;;;;4.13;73.84;100339.97;4992256;28;20062;-75
2021/03/22 04:28:01;;;;;;;23.15;8.15;;;;;;;4.16;74.00;100344.28;4990397;28;20037;-75
2021/03/22 04:30:27;;;;;;;28.52;11.05;;;;;;;4.16;73.92;100339.06;4989768;28;20042;-75
2021/03/22 04:32:52;;;;;;;22.63;9.02;;;;;;;4.17;74.41;100340.78;4991869;28;20116;-74
2021/03/22 04:35:21;;;;;;;22.02;8.13;;;;;;;4.20;74.02;100343.34;4991366;28;20421;-74
2021/03/22 04:37:47;;;;;;;34.88;11.15;;;;;;;4.19;74.33;100341.66;4991765;28;20033;-74
2021/03/22 04:40:13;;;;;;;19.77;9.35;;;;;;;4.15;74.37;100340.81;4989886;28;20489;-74
2021/03/22 04:42:39;;;;;;;28.13;9.27;;;;;;;4.15;74.57;100345.16;4990272;28;20150;-74
2021/03/22 04:45:06;;;;;;;28.23;9.73;;;;;;;4.13;74.45;100352.16;4991157;28;20038;-74
2021/03/22 04:47:31;;;;;;;38.63;11.40;;;;;;;4.08;74.23;100352.22;4999600;28;20042;-75
2021/03/22 04:49:56;;;;;;;24.17;10.88;;;;;;;4.10;74.41;100355.66;5010724;28;20033;-74
2021/03/22 04:52:22;;;;;;;26.45;8.20;;;;;;;4.06;74.58;100354.84;5011469;28;20193;-74
2021/03/22 04:54:47;;;;;;;26.10;10.98;;;;;;;4.08;74.62;100347.84;5025517;28;20125;-75
2021/03/22 04:57:23;;;;;;;18.38;7.95;;;;;;;4.11;74.51;100348.69;5010568;28;20030;-74
2021/03/22 04:59:49;;;;;;;38.05;10.98;;;;;;;4.10;74.46;100345.22;5008906;28;20037;-74
2021/03/22 05:02:14;;;;;;;27.13;9.05;;;;;;;4.15;74.43;100355.59;5025100;28;20034;-74
2021/03/22 05:04:39;;;;;;;25.85;11.30;;;;;;;4.13;73.99;100352.16;5010359;28;20042;-75
2021/03/22 05:07:05;;;;;;;33.67;11.13;;;;;;;4.13;73.91;100347.78;5008344;28;20500;-76
2021/03/22 05:09:30;;;;;;;29.83;9.85;;;;;;;4.08;74.50;100342.63;5010307;28;20493;-75
2021/03/22 05:11:56;;;;;;;29.40;9.63;;;;;;;4.12;74.22;100346.06;5010444;28;20501;-75
2021/03/22 05:14:21;;;;;;;24.42;7.47;;;;;;;4.14;74.00;100348.69;5010869;28;20480;-75
2021/03/22 05:16:47;;;;;;;26.05;10.05;;;;;;;4.13;74.05;100344.31;5010159;28;20432;-75
2021/03/22 05:19:12;;;;;;;31.42;8.32;;;;;;;4.12;74.38;100348.69;5009637;28;20151;-76
2021/03/22 05:21:37;;;;;;;28.67;9.52;;;;;;;4.11;73.87;100338.25;5010235;28;20077;-74
2021/03/22 05:24:03;;;;;;;23.88;7.72;;;;;;;4.03;74.17;100343.59;5009795;28;20049;-76
2021/03/22 05:26:28;;;;;;;24.08;7.82;;;;;;;4.02;74.40;100352.31;5010294;28;20065;-75
2021/03/22 05:28:54;;;;;;;25.35;7.15;;;;;;;4.04;74.62;100342.72;5010499;28;20053;-75
2021/03/22 05:31:19;;;;;;;28.83;8.93;;;;;;;4.07;74.48;100340.91;5010199;28;20053;-75
2021/03/22 05:33:44;;;;;;;41.00;9.15;;;;;;;4.05;74.54;100336.59;5009693;28;20092;-77
2021/03/22 05:36:10;;;;;;;32.97;9.05;;;;;;;4.08;74.58;100349.59;5010339;28;20038;-74
2021/03/22 05:38:37;;;;;;;37.30;8.68;;;;;;;4.12;74.32;100353.06;5009826;28;20042;-75
2021/03/22 05:41:12;;;;;;;28.98;8.98;;;;;;;4.09;74.13;100349.59;5010400;28;20042;-75
2021/03/22 05:43:40;;;;;;;27.50;9.02;;;;;;;4.11;74.15;100352.19;5012662;28;20049;-75
2021/03/22 05:46:32;;;;;;;28.20;8.27;;;;;;;4.09;74.18;100344.38;5014766;28;20467;-75
2021/03/22 05:49:04;;;;;;;22.27;9.73;;;;;;;4.12;74.19;100351.28;5029182;28;20109;-75
2021/03/22 05:51:40;;;;;;;26.92;9.68;;;;;;;4.08;74.29;100350.47;5014771;28;20041;-75
2021/03/22 05:54:44;;;;;;;35.67;11.93;;;;;;;3.99;74.65;100349.75;5015825;28;20058;-75
2021/03/22 05:57:37;;;;;;;30.42;8.40;;;;;;;4.06;74.76;100349.66;4993619;28;20034;-76
2021/03/22 06:00:44;;;;;;;23.23;9.05;;;;;;;4.09;74.44;100349.59;5014254;28;20493;-76
2021/03/22 06:03:31;;;;;;;25.73;9.60;;;;;;;4.04;74.22;100355.75;4991248;28;20034;-75
2021/03/22 06:06:18;;;;;;;28.63;9.27;;;;;;;4.11;74.04;100359.13;5014222;28;20042;-77
2021/03/22 06:09:05;;;;;;;24.35;10.43;;;;;;;4.19;74.16;100358.16;5002980;28;20030;-76
2021/03/22 06:11:33;;;;;;;36.15;14.20;;;;;;;4.21;74.05;100358.13;5014248;28;20033;-75
2021/03/22 06:14:22;;;;;;;32.13;13.18;;;;;;;4.20;74.22;100356.41;5014056;28;20417;-75
2021/03/22 06:16:56;;;;;;;38.92;14.95;;;;;;;4.23;73.78;100353.75;5015211;28;20038;-76
2021/03/22 06:19:21;;;;;;;39.20;15.40;;;;;;;4.23;73.87;100359.84;5014317;28;20030;-75
2021/03/22 06:21:48;;;;;;;45.80;15.82;;;;;;;4.20;73.69;100362.47;5012640;28;20353;-75
2021/03/22 06:24:21;;;;;;;29.90;14.43;;;;;;;4.18;74.19;100363.38;5013841;28;20037;-75
2021/03/22 06:26:48;;;;;;;34.17;12.20;;;;;;;4.26;74.02;100366.78;5014478;28;20033;-75
2021/03/22 06:29:33;;;;;;;43.47;13.30;;;;;;;4.36;74.00;100367.50;5014858;28;20036;-75
2021/03/22 06:32:07;;;;;;;23.50;11.75;;;;;;;4.37;73.70;100367.47;5015399;28;20084;-76
2021/03/22 06:34:52;;;;;;;26.83;11.73;;;;;;;4.38;73.38;100366.59;5014082;28;20117;-75
2021/03/22 06:37:24;;;;;;;35.00;12.02;;;;;;;4.40;73.80;100371.78;5013419;28;20084;-75
2021/03/22 06:40:01;;;;;;;22.42;10.95;;;;;;;4.48;73.53;100367.31;4993472;28;20057;-74
2021/03/22 06:42:26;;;;;;;20.85;10.98;;;;;;;4.51;73.62;100373.34;4994004;28;20058;-76
2021/03/22 06:44:53;;;;;;;24.23;11.45;;;;;;;4.59;73.31;100377.59;4993713;28;20548;-76
2021/03/22 06:47:24;;;;;;;29.65;11.55;;;;;;;4.62;72.91;100378.41;5010254;28;20458;-76
2021/03/22 06:50:11;;;;;;;37.00;11.93;;;;;;;4.55;72.85;100383.75;4995433;28;20034;-76
2021/03/22 06:52:39;;;;;;;32.33;13.48;;;;;;;4.45;73.40;100388.22;4993502;28;20034;-76
2021/03/22 06:55:26;;;;;;;26.40;11.45;;;;;;;4.49;73.43;100390.78;4992414;28;20034;-75
2021/03/22 06:57:52;;;;;;;27.60;9.70;;;;;;;4.56;73.00;100393.31;4994108;28;20057;-76
2021/03/22 07:00:21;;;;;;;30.50;11.90;;;;;;;4.65;72.87;100394.03;5009086;28;20486;-75
2021/03/22 07:02:52;;;;;;;34.00;11.77;;;;;;;4.65;72.70;100387.94;4994345;28;20090;-75
2021/03/22 07:05:30;;;;;;;31.73;10.93;;;;;;;4.65;73.16;100390.53;4995809;28;20058;-76
2021/03/22 07:08:00;;;;;;;35.50;11.70;;;;;;;4.57;73.16;100392.41;4996272;28;20034;-76
2021/03/22 07:10:31;;;;;;;42.40;14.43;;;;;;;4.56;73.18;100391.56;5015130;28;20121;-77
2021/03/22 07:13:14;;;;;;;30.80;11.30;;;;;;;4.64;73.46;100391.44;5013882;28;20041;-75
2021/03/22 07:15:40;;;;;;;26.85;11.73;;;;;;;4.71;73.28;100396.53;5012488;28;20065;-76
2021/03/22 07:18:22;;;;;;;32.20;13.05;;;;;;;4.83;72.98;100389.41;5012024;28;20097;-75
2021/03/22 07:20:59;;;;;;;40.88;14.15;;;;;;;4.91;72.63;100395.38;5028708;28;20052;-76
2021/03/22 07:23:26;;;;;;;40.55;15.27;;;;;;;4.95;72.40;100403.13;5014865;28;20040;-75
2021/03/22 07:25:52;;;;;;;41.67;12.40;;;;;;;4.92;72.74;100400.59;5018736;28;20038;-75
2021/03/22 07:28:42;;;;;;;35.58;13.63;;;;;;;5.01;72.87;100401.31;5016883;28;20103;-76
2021/03/22 07:31:24;;;;;;;29.90;12.02;;;;;;;5.10;72.51;100406.41;5014796;28;20033;-75
2021/03/22 07:34:10;;;;;;;40.22;14.15;;;;;;;5.11;71.89;100408.97;5018480;28;20071;-75
2021/03/22 07:36:42;;;;;;;;;;;;;;;5.16;71.76;100408.88;5015232;28;20049;-75
2021/03/22 07:39:32;;;;;;;27.45;14.48;;;;;;;5.25;71.51;100403.50;5013565;28;19956;-75
2021/03/22 07:42:09;;;;;;;43.83;13.70;;;;;;;5.33;70.13;100406.84;5012442;28;20121;-74
2021/03/22 07:45:03;;;;;;;29.40;13.75;;;;;;;5.52;70.71;100407.38;5012250;28;20352;-76
2021/03/22 07:47:48;;;;;;;33.67;12.20;;;;;;;5.63;68.66;100407.16;4988950;28;20125;-76
2021/03/22 07:51:02;;;;;;;34.67;13.77;;;;;;;5.50;69.23;100409.16;5011964;28;20117;-76
2021/03/22 07:53:37;;;;;;;29.67;15.85;;;;;;;5.59;68.90;100406.38;4970478;28;20047;-76
2021/03/22 07:56:32;;;;;;;28.35;13.25;;;;;;;5.77;68.10;100422.59;5010143;28;20038;-76
2021/03/22 07:59:32;;;;;;;28.00;13.75;;;;;;;5.82;67.67;100411.16;5011716;28;20038;-76
2021/03/22 08:02:08;;;;;;;31.17;13.57;;;;;;;6.02;67.18;100421.25;5012132;28;20046;-75
2021/03/22 08:05:01;;;;;;;29.85;12.38;;;;;;;6.08;65.93;100428.13;5011058;28;20037;-76
2021/03/22 08:07:35;;;;;;;29.35;13.32;;;;;;;5.99;65.88;100430.94;5012078;28;20092;-76
2021/03/22 08:10:28;;;;;;;38.20;14.15;;;;;;;6.05;65.31;100436.03;5010111;28;20041;-76
2021/03/22 08:13:03;;;;;;;24.73;12.82;;;;;;;6.21;63.79;100429.59;5012008;28;20045;-75
2021/03/22 08:15:55;;;;;;;23.58;12.38;;;;;;;6.33;64.04;100425.88;5010611;28;20413;-77
2021/03/22 08:18:44;;;;;;;23.85;12.20;;;;;;;6.33;63.95;100427.63;5027097;28;20105;-76
2021/03/22 08:21:24;;;;;;;24.25;12.05;;;;;;;6.24;63.83;100434.75;5014080;28;20046;-75
2021/03/22 08:24:29;;;;;;;28.60;13.60;;;;;;;6.26;64.37;100436.50;5016576;28;20050;-74
2021/03/22 08:27:01;;;;;;;26.63;13.82;;;;;;;6.26;64.64;100432.13;4998688;28;20046;-75
2021/03/22 08:29:31;;;;;;;30.85;13.98;;;;;;;6.21;64.85;100428.75;5011012;28;20042;-75
2021/03/22 08:32:17;;;;;;;25.30;11.50;;;;;;;6.20;64.20;100429.63;5027194;28;20374;-76
2021/03/22 08:34:59;;;;;;;21.35;10.80;;;;;;;6.36;64.24;100438.88;5018776;28;20117;-75
2021/03/22 08:37:48;;;;;;;23.08;11.15;;;;;;;6.51;63.70;100432.44;5017116;28;20053;-76
2021/03/22 08:40:25;;;;;;;18.80;9.93;;;;;;;6.52;64.16;100434.19;5013378;28;20374;-75
2021/03/22 08:43:00;;;;;;;20.00;10.02;;;;;;;6.94;62.31;100431.47;5012750;28;20049;-76
2021/03/22 08:45:36;;;;;;;24.70;10.20;;;;;;;8.65;56.98;100422.44;5012180;28;20211;-76
2021/03/22 08:48:21;;;;;;;25.00;10.82;;;;;;;9.86;52.79;100418.34;5026453;28;20473;-77
2021/03/22 08:50:48;;;;;;;14.40;8.93;;;;;;;10.42;51.55;100425.09;5011586;28;20501;-77
2021/03/22 08:53:17;;;;;;;19.25;9.07;;;;;;;10.10;52.50;100427.13;5012367;28;20033;-75
2021/03/22 08:55:59;;;;;;;16.33;7.97;;;;;;;9.91;51.73;100427.88;5012329;28;20520;-76
2021/03/22 08:58:36;;;;;;;19.60;8.00;;;;;;;9.75;52.01;100424.94;5016115;28;20037;-75
2021/03/22 09:01:08;;;;;;;18.08;7.63;;;;;;;9.50;52.68;100424.91;5016954;28;20038;-76
2021/03/22 09:03:41;;;;;;;103.45;20.83;;;;;;;9.04;53.99;100432.59;5020299;28;20034;-75
2021/03/22 09:06:15;;;;;;;24.45;9.77;;;;;;;8.63;55.10;100431.28;5020242;28;20048;-76
2021/03/22 09:09:04;;;;;;;31.00;11.48;;;;;;;8.30;56.51;100439.25;5011929;28;20037;-77
2021/03/22 09:11:42;;;;;;;25.85;9.88;;;;;;;7.93;58.13;100441.16;5013596;28;20049;-76
2021/03/22 09:14:11;;;;;;;17.30;9.43;;;;;;;7.78;58.81;100441.56;5015391;28;20069;-76
2021/03/22 09:16:39;;;;;;;20.63;9.70;;;;;;;7.62;58.55;100443.72;5014530;28;20207;-77
2021/03/22 09:19:14;;;;;;;18.73;9.50;;;;;;;7.43;59.14;100443.38;5009310;28;20038;-76
2021/03/22 09:21:46;;;;;;;16.97;9.00;;;;;;;7.30;59.92;100448.03;5008332;28;20447;-75
2021/03/22 09:24:36;;;;;;;16.15;10.00;;;;;;;7.34;59.61;100446.22;5011421;28;20120;-77
2021/03/22 09:27:24;;;;;;;29.10;10.50;;;;;;;7.36;60.12;100436.56;5011767;28;20038;-76
2021/03/22 09:29:54;;;;;;;20.35;8.57;;;;;;;7.46;59.67;100432.78;5010342;28;20420;-76
2021/03/22 09:32:25;;;;;;;19.85;8.48;;;;;;;7.52;59.62;100431.75;5010197;28;20040;-76
2021/03/22 09:35:04;;;;;;;15.57;8.85;;;;;;;7.35;60.12;100442.69;5010335;28;20173;-77
2021/03/22 09:38:02;;;;;;;19.30;10.55;;;;;;;7.33;60.35;100441.84;5012872;28;20034;-77
2021/03/22 09:40:28;;;;;;;33.70;12.90;;;;;;;7.15;60.46;100443.19;5015391;28;20845;-75
2021/03/22 09:43:05;;;;;;;20.95;9.90;;;;;;;7.21;60.14;100443.06;5029176;28;20069;-76
2021/03/22 09:46:01;;;;;;;16.90;8.25;;;;;;;8.73;54.89;100440.59;5016924;28;20559;-76
2021/03/22 09:48:36;;;;;;;24.50;9.55;;;;;;;9.44;52.43;100434.75;5015513;28;20120;-77
2021/03/22 09:51:02;;;;;;;47.50;14.07;;;;;;;9.99;51.47;100431.97;5012764;28;20026;-77
2021/03/22 09:53:50;;;;;;;14.07;6.60;;;;;;;9.68;50.97;100435.66;5012825;28;20038;-76
2021/03/22 09:56:34;;;;;;;20.88;7.82;;;;;;;9.24;51.85;100438.06;5011056;28;20037;-75
2021/03/22 09:59:26;;;;;;;21.40;9.45;;;;;;;8.78;53.46;100442.16;5010866;28;20116;-76
2021/03/22 10:01:54;;;;;;;16.27;6.38;;;;;;;8.38;55.30;100445.13;5009633;28;20042;-75
2021/03/22 10:04:21;;;;;;;16.13;5.63;;;;;;;8.07;56.16;100455.63;5010846;28;20057;-76
2021/03/22 10:07:05;;;;;;;18.77;6.43;;;;;;;7.94;56.50;100455.97;5009678;28;20041;-77
2021/03/22 10:10:00;;;;;;;13.25;5.18;;;;;;;7.87;56.04;100454.41;5009956;28;20030;-76
2021/03/22 10:12:34;;;;;;;7.32;4.45;;;;;;;7.90;55.63;100456.09;5010219;28;20026;-77
2021/03/22 10:15:22;;;;;;;12.20;6.00;;;;;;;7.87;55.38;100461.44;5010469;28;20197;-76
2021/03/22 10:18:17;;;;;;;15.85;6.18;;;;;;;7.60;56.21;100457.78;5025076;28;20071;-75
2021/03/22 10:20:46;;;;;;;16.85;7.10;;;;;;;7.47;57.34;100465.13;5004964;28;20389;-76
2021/03/22 10:23:17;;;;;;;13.65;6.22;;;;;;;7.50;57.36;100463.28;5025271;28;20030;-75
2021/03/22 10:25:46;;;;;;;11.82;5.30;;;;;;;7.38;58.01;100460.97;5011275;28;20048;-77
2021/03/22 10:28:23;;;;;;;9.70;4.45;;;;;;;7.29;58.45;100458.59;5010454;28;20041;-76
2021/03/22 10:30:57;;;;;;;12.35;5.53;;;;;;;7.23;59.12;100463.97;5013726;28;20119;-77
2021/03/22 10:33:23;;;;;;;13.70;5.60;;;;;;;7.27;58.79;100463.00;5013768;28;20041;-76
2021/03/22 10:35:53;;;;;;;10.35;4.32;;;;;;;7.18;58.30;100461.47;4993733;28;20045;-75
2021/03/22 10:38:30;;;;;;;12.02;4.53;;;;;;;7.14;58.48;100461.56;4996267;28;20045;-75
2021/03/22 10:40:58;;;;;;;9.13;4.28;;;;;;;7.15;58.48;100458.06;4993816;28;20490;-76
2021/03/22 10:43:23;;;;;;;12.70;4.78;;;;;;;7.19;58.49;100457.09;4986931;28;20041;-76
2021/03/22 10:45:48;;;;;;;10.15;4.00;;;;;;;7.24;58.50;100458.69;4974875;28;20039;-75
2021/03/22 10:48:20;;;;;;;12.45;4.65;;;;;;;7.32;57.92;100464.59;4974434;28;20027;-75
2021/03/22 10:50:45;;;;;;;16.25;5.32;;;;;;;7.39;58.20;100465.31;4974439;28;20047;-76
2021/03/22 10:53:12;;;;;;;13.95;6.35;;;;;;;7.42;58.18;100462.63;4975624;28;20046;-76
2021/03/22 10:55:43;;;;;;;17.20;6.93;;;;;;;7.46;58.04;100466.91;4990100;28;20046;-77
2021/03/22 10:58:18;;;;;;;16.98;6.25;;;;;;;7.50;59.12;100471.13;4993203;28;20029;-77
2021/03/22 11:00:45;;;;;;;18.23;6.57;;;;;;;7.47;59.05;100468.59;5031027;22;20570;-71
2021/03/22 11:03:19;;;;;;;14.73;7.57;;;;;;;7.36;59.72;100473.28;5012468;28;20184;-73
2021/03/22 11:05:45;;;;;;;23.98;10.43;;;;;;;7.47;59.37;100473.00;5009371;28;20083;-71
2021/03/22 11:08:30;;;;;;;12.48;6.00;;;;;;;7.44;58.51;100478.34;5007531;28;20033;-73
2021/03/22 11:11:05;;;;;;;47.05;8.18;;;;;;;7.45;58.69;100472.16;5002041;28;20038;-73
2021/03/22 11:13:34;;;;;;;20.37;6.00;;;;;;;7.48;58.24;100480.84;5013076;28;20488;-73
2021/03/22 11:16:01;;;;;;;17.98;6.40;;;;;;;7.31;59.00;100486.50;5012781;28;20560;-73
2021/03/22 11:18:29;;;;;;;16.55;6.78;;;;;;;7.33;58.97;100486.44;5013342;28;20496;-74
2021/03/22 11:20:57;;;;;;;15.82;6.78;;;;;;;7.30;58.45;100483.91;5014211;28;20033;-73
2021/03/22 11:23:29;;;;;;;17.60;6.18;;;;;;;7.22;58.94;100493.72;5015977;28;20029;-72
2021/03/22 11:25:58;;;;;;;11.32;5.47;;;;;;;7.10;57.57;100494.88;5015943;28;20448;-73
2021/03/22 11:28:30;;;;;;;17.10;5.78;;;;;;;7.12;57.26;100494.84;5013301;28;20092;-73
2021/03/22 11:31:01;;;;;;;11.20;4.93;;;;;;;7.22;57.29;100504.22;5012664;28;20037;-73
2021/03/22 11:33:38;;;;;;;27.42;6.68;;;;;;;7.16;57.34;100502.63;5012245;28;20072;-73
2021/03/22 11:36:14;;;;;;;32.88;6.85;;;;;;;7.21;57.69;100497.22;5012023;28;20113;-72
2021/03/22 11:38:46;;;;;;;10.13;5.85;;;;;;;7.25;56.62;100509.38;5012506;28;20049;-72
2021/03/22 11:41:40;;;;;;;15.02;5.43;;;;;;;7.25;57.14;100498.91;5010729;28;20045;-72
2021/03/22 11:44:25;;;;;;;16.70;6.68;;;;;;;7.36;56.49;100502.13;5010460;28;20500;-73
2021/03/22 11:46:58;;;;;;;14.60;5.53;;;;;;;7.51;56.53;100499.13;5012139;28;20040;-73
2021/03/22 11:49:41;;;;;;;14.43;5.80;;;;;;;7.66;56.31;100497.88;5011420;28;20125;-72
2021/03/22 11:52:18;;;;;;;18.13;5.82;;;;;;;7.84;54.94;100493.03;5011693;28;20497;-73